Fulton County Airport Brown Field
KFTY : now visible

Airfield :











YOU CAN JOIN US ON...

 
LOGIN :

Register | Disclaimer

   EN    FR    IT 

 









Legend :    VFR   Marginal VFR   IFR   Intensive IFR   Very Intensive IFR
Visi :
Ceiling :
>= 8 km
>= 3000ft
5 to 8 km
1000 to 3000 ft
1500m to 5 km
500 to 1000 ft
800 to 1500m
200 to 500 ft
< 800m
< 200 ft
Symbols :   Thunderstorms  Fog  Heavy snow  Heavy precipitations  Wind > 20 kt






- Airport Elevation : 841 ft


KFTY - Fulton County Brown Field

CURRENT METAR :
  • 130419Z 09009G20KT 10SM OVC014 04/02 A3032 RMK AO2 RAE01 P0000 T00440017

EXPIRED METARs :
  • 130353Z 08013G20KT 10SM -RA OVC015 04/02 A3032 RMK AO2 SLP269 P0000 T00440017
  • 130253Z 08010KT 10SM -RA BKN018 OVC024 05/02 A3034 RMK AO2 SLP277 P0001 60010 T00500022 51005
  • 130153Z 08008KT 10SM -RA OVC026 06/02 A3034 RMK AO2 SLP277 P0003 T00560022

TAF KFTY
Valid from the 13 at 04:00 until the 14 at 00:00 UTC


130334Z 1304/1324 09008KT 6SM -SHRA BR BKN018 OVC025
FM130700 08007KT 5SM SHRA BR OVC009
FM131000 08007KT 4SM SHRA BR OVC007
FM131900 10006KT 2SM SHRA BR OVC005



MET'MAP, your aeronautical weather chart ! - Copyright ORBIFLY December 2007 - Disclaimer

ORBIFLY MET'MAP TEAM :

Programming & Development : Alexandra Zaïnal
Concept & original design : Baudouin d'Aumeries
Assistance for programming : Marc-Olivier Méhu
Technical & hardware support : Manuel Goepfert

Contact : metmap@orbifly.com




SOURCES & CREDITS :

   NOAA       Earth
Advisory